Time;durP1;ratioP1;P1;durP2;ratioP2;P2;SDS_P1;SDS_P2;PMS_P1;PMS_P2;Temp;Humidity;BMP_temperature;BMP_pressure;BME280_temperature;BME280_humidity;BME280_pressure;Samples;Min_cycle;Max_cycle;Signal;HPM_P1;HPM_P2
2023/06/12 00:01:02;;;;;;;5.75;4.35;;;;;;;;;;5049755;28;20152;-73
2023/06/12 00:03:28;;;;;;;6.22;4.63;;;;;;;;;;5051961;28;20188;-75
2023/06/12 00:05:58;;;;;;;5.10;4.60;;;;;;;;;;5054882;28;20017;-73
2023/06/12 00:08:26;;;;;;;5.55;4.10;;;;;;;;;;5051135;28;20044;-73
2023/06/12 00:10:52;;;;;;;5.13;4.50;;;;;;;;;;5052598;28;20029;-73
2023/06/12 00:13:17;;;;;;;4.38;3.97;;;;;;;;;;5052739;28;20494;-73
2023/06/12 00:15:43;;;;;;;4.95;4.18;;;;;;;;;;5052574;28;20029;-72
2023/06/12 00:18:08;;;;;;;8.93;4.97;;;;;;;;;;5039155;28;20636;-73
2023/06/12 00:20:33;;;;;;;6.03;4.57;;;;;;;;;;5052699;28;20025;-73
2023/06/12 00:22:59;;;;;;;6.10;4.32;;;;;;;;;;5051050;28;20371;-73
2023/06/12 00:25:26;;;;;;;5.22;4.72;;;;;;;;;;5052250;28;20507;-73
2023/06/12 00:27:51;;;;;;;5.20;4.70;;;;;;;;;;5052285;28;20037;-73
2023/06/12 00:30:16;;;;;;;5.18;4.68;;;;;;;;;;5050945;28;20546;-73
2023/06/12 00:32:42;;;;;;;5.13;4.63;;;;;;;;;;5052604;28;20052;-73
2023/06/12 00:35:07;;;;;;;7.65;4.65;;;;;;;;;;5052204;28;20120;-73
2023/06/12 00:37:33;;;;;;;8.40;5.10;;;;;;;;;;5052099;28;20083;-73
2023/06/12 00:39:59;;;;;;;4.88;4.45;;;;;;;;;;5052080;28;20033;-73
2023/06/12 00:42:35;;;;;;;5.03;4.32;;;;;;;;;;5051777;28;20518;-73
2023/06/12 00:45:00;;;;;;;4.32;3.92;;;;;;;;;;5052212;28;20025;-73
2023/06/12 00:47:26;;;;;;;4.68;4.28;;;;;;;;;;5051821;28;20043;-73
2023/06/12 00:49:52;;;;;;;4.18;3.78;;;;;;;;;;5051952;28;20061;-73
2023/06/12 00:52:18;;;;;;;4.97;4.47;;;;;;;;;;5051888;28;20033;-73
2023/06/12 00:54:44;;;;;;;7.07;5.38;;;;;;;;;;5051240;28;20029;-72
2023/06/12 00:57:11;;;;;;;4.35;3.95;;;;;;;;;;5052078;28;20017;-73
2023/06/12 00:59:36;;;;;;;7.78;4.90;;;;;;;;;;5051094;28;20048;-73
2023/06/12 01:02:03;;;;;;;5.65;4.93;;;;;;;;;;5051780;28;20071;-73
2023/06/12 01:04:29;;;;;;;5.80;5.22;;;;;;;;;;5051773;28;20376;-73
2023/06/12 01:07:04;;;;;;;7.60;4.53;;;;;;;;;;5051652;28;20086;-73
2023/06/12 01:09:39;;;;;;;5.25;4.70;;;;;;;;;;5051844;28;20503;-74
2023/06/12 01:12:07;;;;;;;6.55;5.53;;;;;;;;;;5051993;28;20024;-73
2023/06/12 01:14:32;;;;;;;5.78;5.00;;;;;;;;;;5052095;28;20064;-74
2023/06/12 01:17:01;;;;;;;7.07;6.00;;;;;;;;;;5051562;28;20037;-74
2023/06/12 01:19:27;;;;;;;5.80;5.25;;;;;;;;;;5051516;28;20492;-74
2023/06/12 01:21:58;;;;;;;7.88;5.40;;;;;;;;;;5051815;28;20170;-74
2023/06/12 01:24:54;;;;;;;6.53;5.57;;;;;;;;;;5051450;28;20518;-74
2023/06/12 01:27:36;;;;;;;6.78;6.07;;;;;;;;;;5051410;28;20415;-74
2023/06/12 01:30:29;;;;;;;8.95;6.10;;;;;;;;;;5051830;28;20051;-74
2023/06/12 01:32:58;;;;;;;6.57;5.55;;;;;;;;;;5051655;28;20052;-75
2023/06/12 01:35:27;;;;;;;8.32;6.75;;;;;;;;;;5051073;28;20036;-74
2023/06/12 01:37:54;;;;;;;7.15;6.45;;;;;;;;;;5051635;28;20614;-74
2023/06/12 01:40:22;;;;;;;7.75;6.35;;;;;;;;;;5050582;28;20041;-73
2023/06/12 01:42:47;;;;;;;8.45;6.50;;;;;;;;;;5050998;28;20037;-74
2023/06/12 01:45:13;;;;;;;8.10;6.57;;;;;;;;;;5050831;28;20025;-74
2023/06/12 01:47:38;;;;;;;12.70;6.13;;;;;;;;;;5051385;28;20025;-74
2023/06/12 01:50:05;;;;;;;9.02;6.10;;;;;;;;;;5050736;28;20098;-73
2023/06/12 01:52:32;;;;;;;6.40;5.72;;;;;;;;;;5049104;28;20395;-73
2023/06/12 01:54:59;;;;;;;8.18;5.85;;;;;;;;;;5050865;28;20492;-73
2023/06/12 01:57:24;;;;;;;6.15;5.55;;;;;;;;;;5050612;28;20071;-73
2023/06/12 01:59:53;;;;;;;10.15;5.72;;;;;;;;;;5051297;28;20052;-75
2023/06/12 02:02:19;;;;;;;6.68;5.80;;;;;;;;;;5035237;28;20521;-73
2023/06/12 02:04:44;;;;;;;7.07;5.43;;;;;;;;;;5050549;28;20029;-73
2023/06/12 02:07:10;;;;;;;6.85;5.70;;;;;;;;;;5053727;28;20520;-73
2023/06/12 02:09:35;;;;;;;16.85;5.82;;;;;;;;;;5054725;28;20044;-73
2023/06/12 02:12:01;;;;;;;6.32;5.55;;;;;;;;;;5054066;28;20383;-73
2023/06/12 02:14:27;;;;;;;6.65;5.30;;;;;;;;;;5054256;28;20052;-73
2023/06/12 02:16:55;;;;;;;11.07;5.55;;;;;;;;;;5044319;28;20037;-73
2023/06/12 02:19:25;;;;;;;6.32;4.80;;;;;;;;;;5054409;28;20033;-73
2023/06/12 02:21:55;;;;;;;7.45;5.55;;;;;;;;;;5054231;28;20503;-73
2023/06/12 02:24:24;;;;;;;6.88;5.20;;;;;;;;;;5054096;28;20029;-73
2023/06/12 02:26:49;;;;;;;11.35;5.85;;;;;;;;;;5054904;28;20037;-73
2023/06/12 02:29:15;;;;;;;6.13;5.53;;;;;;;;;;5048049;28;20036;-73
2023/06/12 02:31:40;;;;;;;6.75;5.60;;;;;;;;;;5041220;28;20168;-73
2023/06/12 02:34:06;;;;;;;7.00;5.38;;;;;;;;;;5035643;28;20044;-73
2023/06/12 02:36:33;;;;;;;9.00;5.68;;;;;;;;;;5048298;28;20033;-73
2023/06/12 02:39:00;;;;;;;8.02;5.55;;;;;;;;;;5054764;28;20536;-73
2023/06/12 02:41:25;;;;;;;7.45;5.70;;;;;;;;;;5053963;28;20083;-73
2023/06/12 02:43:51;;;;;;;9.23;5.28;;;;;;;;;;5053877;28;20037;-73
2023/06/12 02:46:16;;;;;;;6.22;5.43;;;;;;;;;;5053870;28;20158;-73
2023/06/12 02:48:41;;;;;;;5.97;4.72;;;;;;;;;;5053865;28;20436;-73
2023/06/12 02:51:07;;;;;;;9.05;5.45;;;;;;;;;;5054190;28;20059;-73
2023/06/12 02:53:32;;;;;;;7.22;5.65;;;;;;;;;;5054325;28;20063;-73
2023/06/12 02:55:57;;;;;;;8.07;5.95;;;;;;;;;;5053854;28;20095;-72
2023/06/12 02:58:23;;;;;;;6.53;5.82;;;;;;;;;;5045537;28;20036;-74
2023/06/12 03:00:48;;;;;;;7.15;6.00;;;;;;;;;;5053769;28;20041;-73
2023/06/12 03:03:14;;;;;;;9.93;5.78;;;;;;;;;;5036928;28;20364;-73
2023/06/12 03:05:41;;;;;;;6.53;5.78;;;;;;;;;;5034291;28;20610;-74
2023/06/12 03:08:08;;;;;;;6.38;5.55;;;;;;;;;;5050772;28;20041;-73
2023/06/12 03:10:34;;;;;;;6.38;5.63;;;;;;;;;;5052339;28;20044;-74
2023/06/12 03:12:59;;;;;;;6.00;5.40;;;;;;;;;;5044580;28;20503;-74
2023/06/12 03:15:26;;;;;;;6.70;6.00;;;;;;;;;;5053791;28;20052;-73
2023/06/12 03:17:51;;;;;;;10.27;6.07;;;;;;;;;;5053657;28;20021;-73
2023/06/12 03:20:17;;;;;;;8.88;6.18;;;;;;;;;;5052216;28;20036;-73
2023/06/12 03:22:42;;;;;;;7.78;6.15;;;;;;;;;;5053318;28;20094;-73
2023/06/12 03:25:10;;;;;;;9.20;6.40;;;;;;;;;;5053266;28;20120;-73
2023/06/12 03:27:36;;;;;;;6.82;6.00;;;;;;;;;;5053374;28;20040;-73
2023/06/12 03:30:01;;;;;;;9.18;6.38;;;;;;;;;;5053866;28;20391;-72
2023/06/12 03:32:27;;;;;;;7.35;5.93;;;;;;;;;;5053195;28;20091;-73
2023/06/12 03:34:52;;;;;;;6.60;5.88;;;;;;;;;;5053283;28;20021;-73
2023/06/12 03:37:18;;;;;;;8.00;6.30;;;;;;;;;;5051806;28;20499;-73
2023/06/12 03:39:44;;;;;;;8.98;6.60;;;;;;;;;;5053163;28;20507;-73
2023/06/12 03:42:10;;;;;;;8.75;6.53;;;;;;;;;;5052903;28;20017;-73
2023/06/12 03:44:35;;;;;;;6.68;5.90;;;;;;;;;;5050821;28;20024;-73
2023/06/12 03:47:01;;;;;;;7.53;6.22;;;;;;;;;;5051832;28;20040;-73
2023/06/12 03:49:26;;;;;;;9.27;6.32;;;;;;;;;;5052186;28;20048;-73
2023/06/12 03:51:51;;;;;;;6.75;6.15;;;;;;;;;;5053077;28;20036;-73
2023/06/12 03:54:18;;;;;;;8.27;6.28;;;;;;;;;;5053048;28;20047;-73
2023/06/12 03:56:43;;;;;;;8.38;6.43;;;;;;;;;;5053283;28;20025;-73
2023/06/12 03:59:08;;;;;;;7.28;6.07;;;;;;;;;;5045140;28;20414;-73
2023/06/12 04:01:34;;;;;;;7.50;5.72;;;;;;;;;;5052908;28;20128;-73
2023/06/12 04:04:00;;;;;;;7.35;5.68;;;;;;;;;;5052761;28;20041;-73
2023/06/12 04:06:25;;;;;;;7.35;5.38;;;;;;;;;;5052950;28;20053;-74
2023/06/12 04:08:53;;;;;;;8.65;6.03;;;;;;;;;;5053299;28;20502;-73
2023/06/12 04:11:19;;;;;;;7.03;5.50;;;;;;;;;;5052764;28;20453;-73
2023/06/12 04:13:45;;;;;;;5.95;5.03;;;;;;;;;;5052643;28;20112;-73
2023/06/12 04:16:10;;;;;;;9.02;5.55;;;;;;;;;;5052702;28;20121;-73
2023/06/12 04:18:37;;;;;;;11.25;5.43;;;;;;;;;;5051121;28;20025;-74
2023/06/12 04:21:07;;;;;;;6.20;5.35;;;;;;;;;;5052783;28;20017;-74
2023/06/12 04:23:32;;;;;;;7.00;6.10;;;;;;;;;;5052932;28;20070;-74
2023/06/12 04:26:04;;;;;;;6.68;5.68;;;;;;;;;;5052128;28;20116;-74
2023/06/12 04:28:29;;;;;;;7.47;5.85;;;;;;;;;;5051852;28;20114;-73
2023/06/12 04:30:55;;;;;;;8.65;5.30;;;;;;;;;;5052655;28;20068;-73
2023/06/12 04:33:21;;;;;;;5.72;5.20;;;;;;;;;;5052384;28;20025;-73
2023/06/12 04:35:46;;;;;;;9.10;5.00;;;;;;;;;;5052561;28;20057;-74
2023/06/12 04:38:12;;;;;;;7.13;5.25;;;;;;;;;;5052386;28;20037;-73
2023/06/12 04:40:37;;;;;;;10.27;5.50;;;;;;;;;;5052400;28;20087;-74
2023/06/12 04:43:06;;;;;;;6.40;5.70;;;;;;;;;;5052137;28;20132;-73
2023/06/12 04:45:36;;;;;;;6.03;5.43;;;;;;;;;;5052124;28;20399;-74
2023/06/12 04:48:02;;;;;;;7.07;5.53;;;;;;;;;;5052607;28;20107;-73
2023/06/12 04:50:27;;;;;;;8.35;5.55;;;;;;;;;;5052607;28;20132;-74
2023/06/12 04:52:54;;;;;;;10.25;5.70;;;;;;;;;;5052118;28;20594;-73
2023/06/12 04:55:22;;;;;;;9.52;5.28;;;;;;;;;;5052397;28;20090;-74
2023/06/12 04:57:52;;;;;;;8.70;5.55;;;;;;;;;;5051941;28;20288;-73
2023/06/12 05:00:19;;;;;;;9.15;5.43;;;;;;;;;;5051808;28;20039;-73
2023/06/12 05:02:44;;;;;;;12.30;5.18;;;;;;;;;;5052443;28;20400;-73
2023/06/12 05:05:10;;;;;;;5.80;5.20;;;;;;;;;;5051761;28;20033;-74
2023/06/12 05:07:35;;;;;;;6.30;5.53;;;;;;;;;;5051930;28;20037;-73
2023/06/12 05:10:01;;;;;;;7.50;5.78;;;;;;;;;;5052004;28;20029;-73
2023/06/12 05:12:26;;;;;;;5.88;5.10;;;;;;;;;;5051628;28;20414;-74
2023/06/12 05:14:51;;;;;;;5.55;4.68;;;;;;;;;;5052213;28;20021;-73
2023/06/12 05:17:17;;;;;;;5.85;4.95;;;;;;;;;;5051569;28;20117;-73
2023/06/12 05:19:43;;;;;;;7.57;4.95;;;;;;;;;;5049494;28;20494;-73
2023/06/12 05:22:08;;;;;;;11.27;5.07;;;;;;;;;;5030292;28;20044;-74
2023/06/12 05:24:34;;;;;;;5.95;5.35;;;;;;;;;;5031543;28;20396;-74
2023/06/12 05:27:00;;;;;;;9.23;5.25;;;;;;;;;;5030674;28;20093;-74
2023/06/12 05:29:26;;;;;;;6.72;5.05;;;;;;;;;;5031579;28;20026;-74
2023/06/12 05:31:52;;;;;;;6.13;5.05;;;;;;;;;;5038687;28;20603;-74
2023/06/12 05:34:17;;;;;;;9.85;5.40;;;;;;;;;;5051529;28;20077;-74
2023/06/12 05:36:42;;;;;;;6.78;4.90;;;;;;;;;;5049821;28;20499;-74
2023/06/12 05:39:08;;;;;;;5.28;4.75;;;;;;;;;;5050118;28;20021;-74
2023/06/12 05:41:34;;;;;;;7.30;5.15;;;;;;;;;;5051999;28;20088;-74
2023/06/12 05:44:00;;;;;;;6.20;5.28;;;;;;;;;;5051069;28;20110;-73
2023/06/12 05:46:25;;;;;;;9.90;4.93;;;;;;;;;;5050851;28;20384;-73
2023/06/12 05:48:51;;;;;;;9.68;5.53;;;;;;;;;;5051397;28;20036;-73
2023/06/12 05:51:16;;;;;;;5.30;4.80;;;;;;;;;;5051274;28;20056;-73
2023/06/12 05:53:44;;;;;;;16.55;5.57;;;;;;;;;;5051713;28;20467;-74
2023/06/12 05:56:13;;;;;;;6.90;4.90;;;;;;;;;;5049819;28;20029;-74
2023/06/12 05:58:44;;;;;;;6.40;5.55;;;;;;;;;;5051493;28;20033;-74
2023/06/12 06:01:11;;;;;;;6.22;5.18;;;;;;;;;;5051056;28;20527;-74
2023/06/12 06:03:42;;;;;;;8.27;5.65;;;;;;;;;;5051243;28;20025;-74
2023/06/12 06:06:07;;;;;;;5.40;4.90;;;;;;;;;;5050809;28;20032;-74
2023/06/12 06:08:32;;;;;;;5.35;4.85;;;;;;;;;;5050356;28;20475;-74
2023/06/12 06:10:58;;;;;;;7.60;5.20;;;;;;;;;;5051031;28;20167;-74
2023/06/12 06:13:23;;;;;;;14.35;7.32;;;;;;;;;;5050951;28;20059;-74
2023/06/12 06:15:49;;;;;;;6.78;5.20;;;;;;;;;;5051256;28;20458;-74
2023/06/12 06:18:14;;;;;;;7.70;5.45;;;;;;;;;;5050890;28;20086;-74
2023/06/12 06:20:40;;;;;;;6.15;5.53;;;;;;;;;;5046300;28;20335;-74
2023/06/12 06:23:05;;;;;;;7.57;5.50;;;;;;;;;;5030089;28;20029;-74
2023/06/12 06:25:31;;;;;;;6.25;5.00;;;;;;;;;;5050683;28;20037;-74
2023/06/12 06:27:57;;;;;;;9.50;5.40;;;;;;;;;;5050547;28;20526;-74
2023/06/12 06:30:22;;;;;;;7.70;5.70;;;;;;;;;;5041678;28;20053;-74
2023/06/12 06:32:49;;;;;;;7.00;5.75;;;;;;;;;;5031526;28;20108;-73
2023/06/12 06:35:15;;;;;;;6.32;4.75;;;;;;;;;;5030813;28;20112;-73
2023/06/12 06:37:40;;;;;;;6.82;4.60;;;;;;;;;;5029419;28;20104;-74
2023/06/12 06:40:06;;;;;;;5.25;4.75;;;;;;;;;;5030894;28;20399;-73
2023/06/12 06:42:31;;;;;;;11.13;4.80;;;;;;;;;;5030998;28;20033;-72
2023/06/12 06:44:56;;;;;;;9.20;4.78;;;;;;;;;;5031247;28;20061;-75
2023/06/12 06:47:22;;;;;;;7.40;4.32;;;;;;;;;;5030778;28;20044;-72
2023/06/12 06:49:47;;;;;;;4.85;4.25;;;;;;;;;;5030922;28;20037;-73
2023/06/12 06:52:12;;;;;;;5.20;4.50;;;;;;;;;;5032187;28;20121;-73
2023/06/12 06:54:38;;;;;;;5.10;4.50;;;;;;;;;;5034450;28;20034;-73
2023/06/12 06:57:03;;;;;;;5.15;4.53;;;;;;;;;;5042445;28;20031;-73
2023/06/12 06:59:29;;;;;;;6.03;5.07;;;;;;;;;;5054511;28;20032;-73
2023/06/12 07:01:54;;;;;;;7.28;5.22;;;;;;;;;;5054536;28;20119;-73
2023/06/12 07:04:19;;;;;;;8.90;4.50;;;;;;;;;;5053979;28;20108;-73
2023/06/12 07:06:44;;;;;;;8.25;4.47;;;;;;;;;;5054133;28;20103;-73
2023/06/12 07:09:11;;;;;;;5.85;4.22;;;;;;;;;;5052705;28;20517;-73
2023/06/12 07:11:36;;;;;;;5.13;4.57;;;;;;;;;;5054759;28;20024;-73
2023/06/12 07:14:01;;;;;;;5.10;4.25;;;;;;;;;;5054105;28;20033;-74
2023/06/12 07:16:27;;;;;;;6.07;4.38;;;;;;;;;;5050885;28;20067;-74
2023/06/12 07:18:52;;;;;;;5.10;3.95;;;;;;;;;;5051971;28;20571;-74
2023/06/12 07:21:17;;;;;;;4.47;4.05;;;;;;;;;;5043386;28;20033;-74
2023/06/12 07:23:43;;;;;;;5.72;3.90;;;;;;;;;;5047626;28;20182;-73
2023/06/12 07:26:09;;;;;;;8.48;4.15;;;;;;;;;;5053715;28;20383;-74
2023/06/12 07:28:34;;;;;;;6.32;4.65;;;;;;;;;;5053744;28;20557;-74
2023/06/12 07:31:00;;;;;;;8.05;4.65;;;;;;;;;;5053782;28;20108;-73
2023/06/12 07:33:25;;;;;;;5.95;5.15;;;;;;;;;;5053582;28;20430;-74
2023/06/12 07:35:50;;;;;;;5.95;4.30;;;;;;;;;;5054647;28;20103;-74
2023/06/12 07:38:16;;;;;;;8.13;4.97;;;;;;;;;;5053776;28;20030;-74
2023/06/12 07:40:41;;;;;;;4.80;4.15;;;;;;;;;;5053596;28;20072;-74
2023/06/12 07:43:06;;;;;;;6.07;5.47;;;;;;;;;;5052044;28;20039;-73
2023/06/12 07:45:31;;;;;;;5.75;5.25;;;;;;;;;;5053576;28;20043;-74
2023/06/12 07:47:59;;;;;;;5.85;5.10;;;;;;;;;;5053940;28;20132;-74
2023/06/12 07:50:25;;;;;;;11.52;4.95;;;;;;;;;;5052329;28;20041;-73
2023/06/12 07:52:51;;;;;;;4.75;3.85;;;;;;;;;;5051001;28;20124;-74
2023/06/12 07:55:16;;;;;;;7.50;4.15;;;;;;;;;;5033411;28;20045;-74
2023/06/12 07:57:42;;;;;;;10.75;4.43;;;;;;;;;;5033477;28;20458;-74
2023/06/12 08:00:07;;;;;;;6.53;3.95;;;;;;;;;;5033827;28;20033;-74
2023/06/12 08:02:33;;;;;;;5.72;4.95;;;;;;;;;;5037150;28;20063;-74
2023/06/12 08:04:59;;;;;;;4.78;4.10;;;;;;;;;;5053425;28;20037;-74
2023/06/12 08:07:26;;;;;;;5.57;4.80;;;;;;;;;;5053011;28;20084;-73
2023/06/12 08:09:52;;;;;;;7.93;4.45;;;;;;;;;;5052993;28;20032;-74
2023/06/12 08:12:17;;;;;;;3.83;3.50;;;;;;;;;;5053117;28;20036;-74
2023/06/12 08:14:42;;;;;;;4.35;3.95;;;;;;;;;;5053723;28;20025;-74
2023/06/12 08:17:08;;;;;;;12.30;4.70;;;;;;;;;;5052974;28;20040;-74
2023/06/12 08:19:34;;;;;;;5.50;4.22;;;;;;;;;;5053127;28;20039;-74
2023/06/12 08:22:00;;;;;;;4.53;4.10;;;;;;;;;;5051591;28;20040;-74
2023/06/12 08:24:29;;;;;;;8.38;3.90;;;;;;;;;;5052632;28;20025;-74
2023/06/12 08:26:56;;;;;;;4.50;3.63;;;;;;;;;;5053222;28;20506;-74
2023/06/12 08:29:21;;;;;;;7.10;4.00;;;;;;;;;;5052878;28;20142;-74
2023/06/12 08:31:47;;;;;;;4.63;3.63;;;;;;;;;;5052485;28;20707;-74
2023/06/12 08:34:12;;;;;;;4.50;3.70;;;;;;;;;;5052540;28;20045;-74
2023/06/12 08:36:38;;;;;;;4.18;3.50;;;;;;;;;;5052579;28;20067;-74
2023/06/12 08:39:03;;;;;;;5.05;4.07;;;;;;;;;;5051361;28;20021;-74
2023/06/12 08:41:31;;;;;;;3.70;3.40;;;;;;;;;;5053050;28;20530;-74
2023/06/12 08:43:59;;;;;;;4.32;3.92;;;;;;;;;;5052254;28;20041;-74
2023/06/12 08:46:28;;;;;;;5.40;3.80;;;;;;;;;;5052018;28;20033;-74
2023/06/12 08:48:54;;;;;;;6.38;3.67;;;;;;;;;;5052343;28;20514;-73
2023/06/12 08:51:20;;;;;;;5.88;3.88;;;;;;;;;;5052030;28;20021;-74
2023/06/12 08:53:47;;;;;;;6.45;3.50;;;;;;;;;;5052744;28;20029;-74
2023/06/12 08:56:13;;;;;;;4.90;3.40;;;;;;;;;;5052243;28;20033;-74
2023/06/12 08:58:38;;;;;;;4.13;3.38;;;;;;;;;;5051997;28;20045;-74
2023/06/12 09:01:06;;;;;;;4.60;3.78;;;;;;;;;;5052087;28;20068;-74
2023/06/12 09:03:35;;;;;;;5.80;3.65;;;;;;;;;;5051981;28;20486;-74
2023/06/12 09:06:05;;;;;;;3.25;3.00;;;;;;;;;;5052574;28;20048;-73
2023/06/12 09:08:31;;;;;;;6.78;3.90;;;;;;;;;;5051858;28;20040;-74
2023/06/12 09:10:58;;;;;;;5.80;3.53;;;;;;;;;;5051840;28;20041;-74
2023/06/12 09:13:23;;;;;;;9.05;3.70;;;;;;;;;;5051909;28;20560;-74
2023/06/12 09:15:52;;;;;;;3.67;3.30;;;;;;;;;;5051487;28;20033;-74
2023/06/12 09:18:19;;;;;;;3.72;3.33;;;;;;;;;;5051875;28;20105;-74
2023/06/12 09:20:45;;;;;;;7.85;3.65;;;;;;;;;;5052473;28;20032;-74
2023/06/12 09:23:13;;;;;;;4.75;3.50;;;;;;;;;;5051795;28;20029;-74
2023/06/12 09:25:40;;;;;;;9.13;3.92;;;;;;;;;;5051544;28;20626;-73
2023/06/12 09:28:09;;;;;;;9.32;4.07;;;;;;;;;;5051630;28;20033;-73
2023/06/12 09:30:42;;;;;;;7.43;3.67;;;;;;;;;;5051708;28;20098;-75
2023/06/12 09:33:08;;;;;;;3.78;3.30;;;;;;;;;;5051743;28;20108;-74
2023/06/12 09:35:48;;;;;;;4.13;3.60;;;;;;;;;;5052270;28;20534;-74
2023/06/12 09:38:14;;;;;;;3.67;3.38;;;;;;;;;;5051513;28;20495;-74
2023/06/12 09:40:40;;;;;;;5.38;3.58;;;;;;;;;;5051759;28;20037;-74
2023/06/12 09:43:06;;;;;;;9.00;3.85;;;;;;;;;;5051480;28;20029;-74
2023/06/12 09:45:31;;;;;;;4.25;3.85;;;;;;;;;;5051436;28;20041;-74
2023/06/12 09:47:56;;;;;;;3.72;3.40;;;;;;;;;;5051677;28;20136;-74
2023/06/12 09:50:23;;;;;;;7.75;4.18;;;;;;;;;;5051381;28;20037;-74
2023/06/12 09:52:49;;;;;;;6.50;3.80;;;;;;;;;;5051376;28;20414;-75
2023/06/12 09:55:16;;;;;;;10.85;3.88;;;;;;;;;;5051311;28;20047;-75
2023/06/12 09:57:48;;;;;;;5.07;3.20;;;;;;;;;;5049955;28;20029;-75
2023/06/12 10:00:16;;;;;;;3.70;3.40;;;;;;;;;;5043377;28;20033;-75
2023/06/12 10:02:48;;;;;;;3.65;3.35;;;;;;;;;;5031715;28;20033;-75
2023/06/12 10:05:22;;;;;;;6.28;3.70;;;;;;;;;;5031400;28;20064;-75
2023/06/12 10:07:52;;;;;;;5.63;3.45;;;;;;;;;;5031517;28;20041;-75
2023/06/12 10:10:18;;;;;;;4.38;3.17;;;;;;;;;;5047733;28;20033;-75
2023/06/12 10:12:44;;;;;;;6.70;3.50;;;;;;;;;;5051468;28;20068;-75
2023/06/12 10:15:11;;;;;;;3.42;3.13;;;;;;;;;;5050970;28;20053;-75
2023/06/12 10:17:38;;;;;;;3.40;3.03;;;;;;;;;;5051532;28;20032;-75
2023/06/12 10:20:06;;;;;;;3.60;2.83;;;;;;;;;;5051375;28;20037;-75
2023/06/12 10:22:32;;;;;;;9.88;3.80;;;;;;;;;;5051215;28;20123;-75
2023/06/12 10:24:58;;;;;;;4.85;4.13;;;;;;;;;;5051040;28;20120;-75
2023/06/12 10:27:24;;;;;;;3.55;3.25;;;;;;;;;;5052331;28;20084;-75
2023/06/12 10:29:57;;;;;;;4.88;3.25;;;;;;;;;;5055339;28;20021;-75
2023/06/12 10:32:23;;;;;;;3.53;3.22;;;;;;;;;;5055188;28;20029;-75
2023/06/12 10:34:53;;;;;;;13.80;3.65;;;;;;;;;;5055182;28;20032;-75
2023/06/12 10:37:38;;;;;;;4.68;3.17;;;;;;;;;;5054814;28;20507;-75
2023/06/12 10:40:14;;;;;;;8.38;3.33;;;;;;;;;;5054966;28;20025;-75
2023/06/12 10:42:47;;;;;;;4.82;3.47;;;;;;;;;;5054739;28;20399;-75
2023/06/12 10:45:32;;;;;;;4.20;3.80;;;;;;;;;;5054492;28;20036;-75
2023/06/12 10:48:08;;;;;;;4.80;3.78;;;;;;;;;;5055072;28;20029;-75
2023/06/12 10:50:52;;;;;;;3.83;3.42;;;;;;;;;;5054393;28;20090;-75
2023/06/12 10:53:26;;;;;;;3.97;3.50;;;;;;;;;;5053057;28;20025;-75
2023/06/12 10:56:03;;;;;;;3.72;3.08;;;;;;;;;;5054424;28;20029;-75
2023/06/12 10:58:35;;;;;;;3.80;3.47;;;;;;;;;;5054159;28;20037;-75
2023/06/12 11:01:06;;;;;;;3.75;3.05;;;;;;;;;;5054347;28;20131;-75
2023/06/12 11:03:33;;;;;;;3.80;3.17;;;;;;;;;;5054032;28;20067;-75
2023/06/12 11:06:13;;;;;;;4.53;3.30;;;;;;;;;;5054528;28;20081;-75
2023/06/12 11:08:40;;;;;;;3.85;3.20;;;;;;;;;;5054740;28;20077;-75
2023/06/12 11:11:13;;;;;;;3.55;2.72;;;;;;;;;;5054042;28;20503;-75
2023/06/12 11:13:42;;;;;;;4.68;3.38;;;;;;;;;;5054161;28;20043;-75
2023/06/12 11:16:12;;;;;;;3.88;3.47;;;;;;;;;;5053907;28;20108;-72
2023/06/12 11:18:37;;;;;;;11.45;3.30;;;;;;;;;;5053823;28;20029;-76
2023/06/12 11:21:03;;;;;;;3.20;2.80;;;;;;;;;;5053746;28;20132;-75
2023/06/12 11:23:28;;;;;;;5.65;3.83;;;;;;;;;;5054289;28;20051;-72
2023/06/12 11:25:56;;;;;;;6.88;3.30;;;;;;;;;;5053781;28;20118;-73
2023/06/12 11:28:28;;;;;;;3.75;3.20;;;;;;;;;;5053712;28;20033;-73
2023/06/12 11:30:54;;;;;;;3.72;3.38;;;;;;;;;;5054100;28;20032;-73
2023/06/12 11:33:20;;;;;;;4.85;3.92;;;;;;;;;;5053867;28;20039;-74
2023/06/12 11:35:48;;;;;;;3.90;3.13;;;;;;;;;;5054152;28;20096;-74
2023/06/12 11:38:18;;;;;;;6.63;3.53;;;;;;;;;;5053243;28;20072;-73
2023/06/12 11:40:44;;;;;;;3.65;3.35;;;;;;;;;;5053537;28;20048;-74
2023/06/12 11:43:10;;;;;;;3.88;3.40;;;;;;;;;;5053471;28;20037;-74
2023/06/12 11:45:41;;;;;;;3.38;2.60;;;;;;;;;;5053208;28;20075;-74
2023/06/12 11:48:16;;;;;;;4.22;3.13;;;;;;;;;;5053530;28;20028;-74
2023/06/12 11:50:44;;;;;;;3.75;3.20;;;;;;;;;;5034578;28;20036;-73
2023/06/12 11:53:11;;;;;;;5.47;3.60;;;;;;;;;;5033497;28;20060;-73
2023/06/12 11:55:37;;;;;;;3.65;3.35;;;;;;;;;;5033617;28;20080;-74
2023/06/12 11:58:04;;;;;;;3.80;3.50;;;;;;;;;;5031844;28;20033;-74
2023/06/12 12:00:30;;;;;;;4.97;3.40;;;;;;;;;;5032678;28;20491;-74
2023/06/12 12:03:01;;;;;;;3.75;3.10;;;;;;;;;;5033671;28;20029;-74
2023/06/12 12:05:31;;;;;;;3.55;3.25;;;;;;;;;;5032630;28;20026;-74
2023/06/12 12:07:59;;;;;;;6.97;3.17;;;;;;;;;;5032820;28;20042;-74
2023/06/12 12:10:26;;;;;;;5.38;3.03;;;;;;;;;;5032876;28;20041;-74
2023/06/12 12:12:59;;;;;;;3.97;3.20;;;;;;;;;;5032877;28;20097;-74
2023/06/12 12:15:26;;;;;;;4.22;3.30;;;;;;;;;;5032910;28;20125;-74
2023/06/12 12:17:52;;;;;;;7.07;3.47;;;;;;;;;;5033527;28;20034;-74
2023/06/12 12:20:20;;;;;;;3.72;3.15;;;;;;;;;;5032721;28;20037;-74
2023/06/12 12:22:57;;;;;;;7.13;3.10;;;;;;;;;;5032904;28;20113;-74
2023/06/12 12:25:26;;;;;;;3.58;2.97;;;;;;;;;;5032646;28;20038;-74
2023/06/12 12:27:53;;;;;;;6.88;3.30;;;;;;;;;;5031339;28;20407;-74
2023/06/12 12:30:19;;;;;;;4.80;3.72;;;;;;;;;;5032734;28;20395;-74
2023/06/12 12:32:46;;;;;;;3.42;3.13;;;;;;;;;;5039486;28;20380;-74
2023/06/12 12:35:16;;;;;;;3.25;2.95;;;;;;;;;;5052479;28;20033;-74
2023/06/12 12:37:42;;;;;;;3.80;3.50;;;;;;;;;;5052275;28;20561;-75
2023/06/12 12:40:10;;;;;;;3.05;2.80;;;;;;;;;;5052446;28;20491;-74
2023/06/12 12:42:39;;;;;;;3.70;3.28;;;;;;;;;;5052200;28;20055;-74
2023/06/12 12:45:05;;;;;;;4.28;3.22;;;;;;;;;;5052267;28;20057;-75
2023/06/12 12:47:32;;;;;;;4.80;3.78;;;;;;;;;;5052811;28;20039;-74
2023/06/12 12:49:58;;;;;;;3.95;3.30;;;;;;;;;;5051644;28;20035;-74
2023/06/12 12:52:23;;;;;;;5.22;3.35;;;;;;;;;;5052454;28;20034;-75
2023/06/12 12:54:49;;;;;;;4.43;2.90;;;;;;;;;;5052402;28;20029;-75
2023/06/12 12:57:14;;;;;;;3.58;2.78;;;;;;;;;;5052081;28;20396;-74
2023/06/12 12:59:40;;;;;;;5.93;3.55;;;;;;;;;;5052593;28;20104;-74
2023/06/12 13:02:05;;;;;;;6.13;3.88;;;;;;;;;;5051977;28;20053;-74
2023/06/12 13:04:31;;;;;;;8.30;3.45;;;;;;;;;;5050237;28;20051;-75
2023/06/12 13:06:56;;;;;;;7.22;3.38;;;;;;;;;;5051865;28;20115;-74
2023/06/12 13:09:21;;;;;;;10.70;2.80;;;;;;;;;;5051942;28;20493;-74
2023/06/12 13:11:47;;;;;;;5.00;3.35;;;;;;;;;;5050993;28;20025;-74
2023/06/12 13:14:12;;;;;;;9.50;3.13;;;;;;;;;;5051830;28;20052;-74
2023/06/12 13:16:37;;;;;;;3.08;2.85;;;;;;;;;;5051679;28;20033;-75
2023/06/12 13:19:02;;;;;;;6.35;3.08;;;;;;;;;;5051813;28;20029;-74
2023/06/12 13:21:28;;;;;;;6.10;3.22;;;;;;;;;;5051783;28;20057;-75
2023/06/12 13:23:53;;;;;;;10.55;3.47;;;;;;;;;;5052358;28;20028;-74
2023/06/12 13:26:19;;;;;;;3.55;3.05;;;;;;;;;;5051407;28;20029;-75
2023/06/12 13:28:44;;;;;;;3.30;2.75;;;;;;;;;;5051888;28;20040;-74
2023/06/12 13:31:09;;;;;;;3.55;3.20;;;;;;;;;;5050212;28;20037;-75
2023/06/12 13:33:35;;;;;;;3.53;3.22;;;;;;;;;;5051676;28;20025;-74
2023/06/12 13:36:01;;;;;;;5.22;3.00;;;;;;;;;;5051772;28;20044;-74
2023/06/12 13:38:46;;;;;;;3.25;2.90;;;;;;;;;;5051266;28;20443;-74
2023/06/12 13:41:12;;;;;;;3.38;2.92;;;;;;;;;;5051135;28;20125;-74
2023/06/12 13:43:38;;;;;;;3.85;3.55;;;;;;;;;;5048631;28;20202;-75
2023/06/12 13:46:03;;;;;;;3.50;3.20;;;;;;;;;;5051222;28;20399;-74
2023/06/12 13:48:28;;;;;;;5.82;2.83;;;;;;;;;;5050983;28;20056;-74
2023/06/12 13:50:53;;;;;;;4.78;3.20;;;;;;;;;;5051519;28;20151;-75
2023/06/12 13:53:19;;;;;;;2.97;2.78;;;;;;;;;;5051038;28;20029;-74
2023/06/12 13:55:45;;;;;;;6.30;2.90;;;;;;;;;;5050950;28;20033;-75
2023/06/12 13:58:10;;;;;;;3.35;3.08;;;;;;;;;;5051034;28;20037;-74
2023/06/12 14:00:37;;;;;;;3.28;2.58;;;;;;;;;;5051398;28;20514;-75
2023/06/12 14:03:02;;;;;;;3.13;2.90;;;;;;;;;;5055494;28;20025;-75
2023/06/12 14:05:27;;;;;;;4.43;3.03;;;;;;;;;;5054900;28;20064;-75
2023/06/12 14:07:52;;;;;;;6.85;3.40;;;;;;;;;;5054968;28;20450;-75
2023/06/12 14:10:18;;;;;;;3.22;2.85;;;;;;;;;;5055255;28;20037;-75
2023/06/12 14:12:43;;;;;;;3.95;2.80;;;;;;;;;;5054966;28;20041;-75
2023/06/12 14:15:09;;;;;;;6.10;2.78;;;;;;;;;;5055218;28;20029;-74
2023/06/12 14:17:36;;;;;;;7.05;2.70;;;;;;;;;;5051523;28;20025;-75
2023/06/12 14:20:03;;;;;;;3.60;2.70;;;;;;;;;;5054996;28;20063;-75
2023/06/12 14:22:28;;;;;;;5.50;2.58;;;;;;;;;;5054849;28;20115;-75
2023/06/12 14:24:53;;;;;;;5.63;3.05;;;;;;;;;;5054524;28;20121;-75
2023/06/12 14:27:18;;;;;;;6.22;2.75;;;;;;;;;;5054646;28;20123;-75
2023/06/12 14:29:44;;;;;;;4.35;2.92;;;;;;;;;;5055199;28;20537;-75
2023/06/12 14:32:09;;;;;;;3.72;3.03;;;;;;;;;;5054589;28;20025;-75
2023/06/12 14:34:34;;;;;;;3.45;3.13;;;;;;;;;;5054465;28;20495;-75
2023/06/12 14:37:00;;;;;;;4.22;2.78;;;;;;;;;;5054643;28;20114;-74
2023/06/12 14:39:25;;;;;;;3.67;3.38;;;;;;;;;;5054493;28;20487;-74
2023/06/12 14:41:50;;;;;;;4.00;2.80;;;;;;;;;;5054701;28;20017;-75